Terminal Aerodrome Forecast
Issued by NWS Charleston, WV

Current Version | Previous Version | Text Only | Print | Product List | Glossary Off
Versions: 1 2 3 4 5 6 7 8 9 10 11 12 13 14 15 16 17 18 19 20 21 22 23 24 25 26 27 28

000
FTUS41 KRLX 242347
TAFPKB
TAF
KPKB 242347Z 2500/2524 22004KT P6SM BKN050
     FM250400 00000KT 5SM BR BKN050
     FM250900 00000KT 2SM BR BKN050
     FM251300 00000KT 3SM BR BKN035
     FM251500 00000KT 6SM BR BKN035
     FM251800 24006KT P6SM BKN040
     FM252300 VRB03KT 6SM SHRA VCTS BKN080CB=

USA.gov is the U.S. government's official web portal to all federal, state and local government web resources and services.